Time;durP1;ratioP1;P1;durP2;ratioP2;P2;SDS_P1;SDS_P2;PMS_P1;PMS_P2;Temp;Humidity;BMP_temperature;BMP_pressure;BME280_temperature;BME280_humidity;BME280_pressure;Samples;Min_cycle;Max_cycle;Signal;HPM_P1;HPM_P2
2023/01/28 00:00:54;;;;;;;6.13;5.10;;;;;;;0.75;99.42;98703.44;5074796;28;20201;-72
2023/01/28 00:03:20;;;;;;;5.83;5.13;;;;;;;0.64;99.86;98695.78;5074761;28;20227;-72
2023/01/28 00:05:47;;;;;;;6.37;5.20;;;;;;;0.73;100.00;98701.00;5074435;28;20273;-72
2023/01/28 00:08:15;;;;;;;5.47;4.67;;;;;;;0.72;99.10;98694.09;5074642;28;20200;-72
2023/01/28 00:10:42;;;;;;;5.47;4.47;;;;;;;0.78;98.79;98690.09;5074230;28;20212;-72
2023/01/28 00:13:13;;;;;;;5.63;4.77;;;;;;;0.73;99.78;98687.91;5074242;28;20236;-72
2023/01/28 00:15:39;;;;;;;6.07;4.97;;;;;;;0.67;99.62;98680.63;5073510;28;20613;-72
2023/01/28 00:18:06;;;;;;;5.67;4.97;;;;;;;0.66;99.96;98699.06;5074423;28;20304;-72
2023/01/28 00:20:34;;;;;;;6.00;4.97;;;;;;;0.73;100.00;98690.53;5074482;28;20200;-72
2023/01/28 00:23:00;;;;;;;4.90;4.40;;;;;;;0.81;99.51;98690.63;5074062;28;20220;-72
2023/01/28 00:25:27;;;;;;;6.30;4.63;;;;;;;0.89;98.67;98695.97;5074070;28;20671;-71
2023/01/28 00:27:53;;;;;;;5.90;5.13;;;;;;;0.74;99.61;98692.19;5074353;28;20555;-71
2023/01/28 00:30:19;;;;;;;5.90;4.80;;;;;;;0.81;99.40;98695.84;5074300;28;20211;-72
2023/01/28 00:32:46;;;;;;;5.70;5.10;;;;;;;0.81;100.00;98692.44;5073923;28;20837;-72
2023/01/28 00:35:13;;;;;;;6.40;4.90;;;;;;;0.70;100.00;98689.97;5074228;28;20204;-72
2023/01/28 00:37:39;;;;;;;5.07;4.50;;;;;;;0.72;100.00;98688.06;5073833;28;20201;-72
2023/01/28 00:40:08;;;;;;;5.07;4.50;;;;;;;0.65;100.00;98685.19;5074132;28;20201;-72
2023/01/28 00:42:36;;;;;;;6.80;4.60;;;;;;;0.63;100.00;98684.47;5073633;28;20719;-72
2023/01/28 00:45:02;;;;;;;5.17;4.67;;;;;;;0.73;100.00;98684.47;5073703;28;20616;-72
2023/01/28 00:47:28;;;;;;;5.27;4.70;;;;;;;0.69;100.00;98673.47;5073572;28;20207;-72
2023/01/28 00:49:55;;;;;;;5.73;4.97;;;;;;;0.76;100.00;98678.97;5073867;28;20207;-72
2023/01/28 00:52:21;;;;;;;5.60;5.03;;;;;;;0.71;100.00;98675.94;5073729;28;20278;-72
2023/01/28 00:54:48;;;;;;;6.93;5.20;;;;;;;0.75;100.00;98683.34;5073716;28;20211;-72
2023/01/28 00:57:14;;;;;;;5.20;4.70;;;;;;;0.70;100.00;98679.50;5073563;28;20208;-72
2023/01/28 00:59:40;;;;;;;5.23;4.73;;;;;;;0.75;100.00;98682.50;5073137;28;20204;-72
2023/01/28 01:02:12;;;;;;;4.80;3.93;;;;;;;0.85;99.85;98675.47;5073437;28;20221;-72
2023/01/28 01:04:40;;;;;;;5.10;4.47;;;;;;;0.85;100.00;98676.28;5073727;28;20189;-72
2023/01/28 01:07:07;;;;;;;6.13;4.93;;;;;;;0.83;99.96;98683.47;5073315;28;20240;-72
2023/01/28 01:09:33;;;;;;;5.50;4.47;;;;;;;0.74;99.50;98675.63;5073715;28;20205;-71
2023/01/28 01:11:59;;;;;;;4.87;4.30;;;;;;;0.87;99.09;98677.00;5073340;28;20232;-72
2023/01/28 01:14:26;;;;;;;6.07;4.50;;;;;;;0.96;99.05;98675.28;5073498;28;20208;-72
2023/01/28 01:16:52;;;;;;;5.20;4.70;;;;;;;0.88;99.43;98673.41;5073599;28;20266;-72
2023/01/28 01:19:19;;;;;;;5.60;4.50;;;;;;;0.96;98.66;98678.75;5073626;28;20205;-72
2023/01/28 01:21:49;;;;;;;5.33;4.00;;;;;;;0.94;98.84;98685.09;5073168;28;20730;-72
2023/01/28 01:24:15;;;;;;;5.73;4.67;;;;;;;0.81;99.74;98687.19;5073555;28;20326;-72
2023/01/28 01:26:41;;;;;;;5.90;4.73;;;;;;;0.91;99.60;98687.97;5073182;28;20205;-72
2023/01/28 01:29:08;;;;;;;5.13;4.33;;;;;;;0.92;99.40;98685.22;5073248;28;20209;-72
2023/01/28 01:31:35;;;;;;;6.13;4.57;;;;;;;0.89;99.64;98695.16;5073388;28;20226;-72
2023/01/28 01:34:01;;;;;;;4.70;4.10;;;;;;;0.93;100.00;98688.66;5073459;28;20220;-71
2023/01/28 01:36:28;;;;;;;4.43;4.03;;;;;;;0.85;100.00;98688.56;5073418;28;20210;-72
2023/01/28 01:38:55;;;;;;;5.00;4.50;;;;;;;0.86;100.00;98692.81;5073062;28;20215;-72
2023/01/28 01:41:32;;;;;;;5.17;4.23;;;;;;;0.89;100.00;98700.41;5073047;28;20603;-72
2023/01/28 01:44:03;;;;;;;4.77;4.27;;;;;;;0.80;100.00;98691.59;5073780;28;20295;-72
2023/01/28 01:46:49;;;;;;;4.50;3.70;;;;;;;0.94;100.00;98698.19;5073049;28;20227;-72
2023/01/28 01:49:21;;;;;;;4.70;4.20;;;;;;;0.79;100.00;98695.19;5071734;28;20559;-72
2023/01/28 01:51:58;;;;;;;4.37;3.97;;;;;;;0.84;100.00;98702.59;5072845;28;20311;-72
2023/01/28 01:54:28;;;;;;;4.37;3.97;;;;;;;0.86;100.00;98698.06;5072104;28;20192;-72
2023/01/28 01:56:55;;;;;;;4.43;4.03;;;;;;;0.90;100.00;98691.56;5071822;28;20192;-71
2023/01/28 01:59:25;;;;;;;4.60;4.03;;;;;;;0.96;100.00;98698.84;5073250;28;20571;-72
2023/01/28 02:01:52;;;;;;;4.70;4.20;;;;;;;0.81;100.00;98692.44;5073097;28;20220;-72
2023/01/28 02:04:25;;;;;;;4.73;3.83;;;;;;;0.89;100.00;98695.16;5072894;28;20686;-71
2023/01/28 02:06:52;;;;;;;4.93;4.43;;;;;;;0.91;100.00;98691.44;5073165;28;20193;-72
2023/01/28 02:09:28;;;;;;;4.40;3.80;;;;;;;0.93;100.00;98696.50;5073049;28;20204;-72
2023/01/28 02:11:58;;;;;;;4.87;4.03;;;;;;;0.95;100.00;98700.63;5076546;28;20236;-72
2023/01/28 02:14:28;;;;;;;4.30;3.83;;;;;;;0.93;100.00;98689.50;5076977;28;20553;-71
2023/01/28 02:16:55;;;;;;;4.37;3.83;;;;;;;0.89;100.00;98693.34;5076848;28;20195;-72
2023/01/28 02:19:27;;;;;;;4.80;4.30;;;;;;;0.92;100.00;98687.00;5076525;28;20210;-72
2023/01/28 02:21:56;;;;;;;4.63;3.93;;;;;;;0.96;100.00;98689.22;5076677;28;20232;-72
2023/01/28 02:24:44;;;;;;;4.63;3.83;;;;;;;1.00;100.00;98692.38;5076428;28;20212;-71
2023/01/28 02:27:37;;;;;;;4.73;3.80;;;;;;;0.86;100.00;98701.50;5076689;28;20189;-72
2023/01/28 02:30:20;;;;;;;3.67;3.20;;;;;;;0.94;100.00;98704.22;5076678;28;20200;-72
2023/01/28 02:32:55;;;;;;;4.43;3.53;;;;;;;0.99;100.00;98704.63;5076172;28;20683;-72
2023/01/28 02:35:33;;;;;;;4.47;3.33;;;;;;;0.88;100.00;98698.72;5076265;28;20275;-72
2023/01/28 02:38:13;;;;;;;3.90;3.40;;;;;;;0.83;100.00;98700.97;5076553;28;20284;-72
2023/01/28 02:43:35;;;;;;;4.03;3.60;;;;;;;0.79;100.00;98697.81;5076150;28;20201;-72
2023/01/28 02:48:56;;;;;;;4.50;4.10;;;;;;;0.82;100.00;98708.00;5076389;28;20251;-72
2023/01/28 02:51:35;;;;;;;4.23;3.83;;;;;;;0.90;100.00;98704.66;5076159;28;20220;-72
2023/01/28 02:54:17;;;;;;;5.20;4.10;;;;;;;0.93;100.00;98704.34;5075804;28;20216;-71
2023/01/28 02:56:53;;;;;;;4.20;3.80;;;;;;;0.84;100.00;98707.84;5076198;28;20200;-72
2023/01/28 02:59:32;;;;;;;4.27;3.87;;;;;;;0.95;100.00;98712.91;5075993;28;20196;-72
2023/01/28 03:02:10;;;;;;;5.47;4.30;;;;;;;0.81;100.00;98713.38;5075037;28;20224;-72
2023/01/28 03:04:54;;;;;;;4.90;4.40;;;;;;;0.78;100.00;98711.03;5076027;28;20192;-71
2023/01/28 03:07:23;;;;;;;7.10;5.03;;;;;;;0.85;100.00;98714.75;5076045;28;20221;-71
2023/01/28 03:09:51;;;;;;;5.17;4.67;;;;;;;0.79;100.00;98721.34;5075883;28;20205;-72
2023/01/28 03:38:41;;;;;;;5.30;4.47;;;;;;;0.73;100.00;98711.47;5075179;28;20229;-72
2023/01/28 03:41:10;;;;;;;5.40;4.63;;;;;;;0.70;100.00;98710.91;5075043;28;20200;-71
2023/01/28 03:43:37;;;;;;;5.73;4.83;;;;;;;0.67;100.00;98726.91;5075167;28;20208;-72
2023/01/28 03:46:05;;;;;;;6.13;5.53;;;;;;;0.60;100.00;98723.19;5075130;28;20250;-72
2023/01/28 03:48:32;;;;;;;5.93;5.33;;;;;;;0.67;100.00;98727.72;5074572;28;20204;-72
2023/01/28 03:50:59;;;;;;;6.70;5.57;;;;;;;0.64;100.00;98729.78;5074927;28;20212;-72
2023/01/28 03:53:27;;;;;;;6.33;5.53;;;;;;;0.75;100.00;98729.63;5074522;28;20725;-71
2023/01/28 03:55:55;;;;;;;8.70;6.07;;;;;;;0.61;100.00;98730.06;5074697;28;20243;-71
2023/01/28 03:58:26;;;;;;;7.23;6.10;;;;;;;0.68;100.00;98728.56;5074702;28;20200;-71
2023/01/28 04:00:53;;;;;;;7.37;6.20;;;;;;;0.67;100.00;98732.13;5074912;28;20194;-71
2023/01/28 04:03:21;;;;;;;7.57;6.37;;;;;;;0.78;100.00;98729.34;5074784;28;20224;-72
2023/01/28 04:06:08;;;;;;;7.10;6.40;;;;;;;0.69;100.00;98731.03;5074682;28;20205;-72
2023/01/28 04:08:35;;;;;;;7.10;6.40;;;;;;;0.68;100.00;98723.31;5074574;28;20192;-71
2023/01/28 04:11:14;;;;;;;10.27;6.63;;;;;;;0.68;100.00;98731.16;5074459;28;20209;-71
2023/01/28 04:13:42;;;;;;;8.37;6.77;;;;;;;0.75;100.00;98727.84;5073879;28;20224;-72
2023/01/28 04:16:08;;;;;;;7.07;5.97;;;;;;;0.82;100.00;98723.69;5074321;28;20208;-71
2023/01/28 04:18:35;;;;;;;8.40;7.00;;;;;;;0.79;100.00;98734.44;5074406;28;20214;-71
2023/01/28 04:21:01;;;;;;;8.13;7.33;;;;;;;0.81;100.00;98729.06;5073931;28;20223;-72
2023/01/28 04:23:28;;;;;;;9.23;7.30;;;;;;;0.75;100.00;98734.84;5073889;28;20664;-72
2023/01/28 04:25:55;;;;;;;8.40;7.27;;;;;;;0.67;100.00;98738.19;5074337;28;20204;-71
2023/01/28 04:28:22;;;;;;;8.57;7.00;;;;;;;0.77;100.00;98741.59;5073925;28;20214;-71
2023/01/28 04:30:48;;;;;;;8.13;7.30;;;;;;;0.81;100.00;98737.72;5073695;28;20679;-72
2023/01/28 04:33:15;;;;;;;7.90;6.77;;;;;;;0.85;100.00;98743.53;5072818;28;20228;-71
2023/01/28 04:35:41;;;;;;;10.10;7.57;;;;;;;0.59;100.00;98750.31;5074026;28;20208;-71
2023/01/28 04:38:08;;;;;;;9.43;8.23;;;;;;;0.68;100.00;98744.25;5073790;28;20204;-71
2023/01/28 04:40:34;;;;;;;8.93;7.60;;;;;;;0.65;100.00;98758.44;5073678;28;20663;-72
2023/01/28 04:43:01;;;;;;;11.47;8.47;;;;;;;0.64;100.00;98755.97;5073832;28;20217;-72
2023/01/28 04:45:28;;;;;;;10.17;8.00;;;;;;;0.61;100.00;98764.06;5073957;28;20223;-72
2023/01/28 04:47:54;;;;;;;8.03;7.23;;;;;;;0.65;100.00;98758.44;5073746;28;20255;-72
2023/01/28 04:50:20;;;;;;;8.80;7.80;;;;;;;0.67;100.00;98756.50;5073782;28;20200;-71
2023/01/28 04:52:47;;;;;;;7.83;7.03;;;;;;;0.75;100.00;98761.84;5073373;28;20239;-72
2023/01/28 04:55:13;;;;;;;8.53;7.50;;;;;;;0.66;100.00;98762.69;5073484;28;20789;-71
2023/01/28 04:57:40;;;;;;;8.23;6.97;;;;;;;0.66;100.00;98756.63;5073716;28;20205;-72
2023/01/28 05:00:07;;;;;;;8.20;7.40;;;;;;;0.63;100.00;98762.16;5074618;28;20216;-72
2023/01/28 05:02:33;;;;;;;9.20;7.83;;;;;;;0.75;100.00;98764.47;5074441;28;20230;-72
2023/01/28 05:05:00;;;;;;;7.93;7.13;;;;;;;0.90;100.00;98767.50;5073734;28;20211;-71
2023/01/28 05:07:27;;;;;;;8.53;6.83;;;;;;;0.95;100.00;98768.69;5073636;28;20212;-71
2023/01/28 05:09:53;;;;;;;9.73;7.97;;;;;;;0.83;100.00;98775.06;5073639;28;20212;-71
2023/01/28 05:12:20;;;;;;;8.70;7.80;;;;;;;0.70;100.00;98778.94;5073367;28;20232;-71
2023/01/28 05:14:46;;;;;;;8.20;7.40;;;;;;;0.66;100.00;98778.41;5073864;28;20251;-72
2023/01/28 05:17:12;;;;;;;8.83;7.93;;;;;;;0.73;100.00;98778.66;5073981;28;20209;-72
2023/01/28 05:19:39;;;;;;;8.47;7.57;;;;;;;0.73;100.00;98779.50;5073190;28;20208;-72
2023/01/28 05:22:05;;;;;;;7.83;7.03;;;;;;;0.67;100.00;98777.44;5073097;28;20225;-71
2023/01/28 05:24:31;;;;;;;8.70;7.70;;;;;;;0.73;100.00;98770.81;5073214;28;20200;-71
2023/01/28 05:26:58;;;;;;;8.10;7.30;;;;;;;0.72;100.00;98775.22;5073245;28;20212;-72
2023/01/28 05:29:24;;;;;;;9.13;8.17;;;;;;;0.66;100.00;98777.56;5073238;28;20205;-72
2023/01/28 05:31:51;;;;;;;8.13;7.03;;;;;;;0.72;100.00;98774.41;5073432;28;20567;-72
2023/01/28 05:34:17;;;;;;;8.40;7.53;;;;;;;0.69;100.00;98765.03;5073412;28;20220;-71
2023/01/28 05:36:43;;;;;;;8.33;7.50;;;;;;;0.69;100.00;98761.59;5073050;28;20208;-72
2023/01/28 05:39:10;;;;;;;8.63;7.47;;;;;;;0.79;100.00;98762.41;5073030;28;20210;-71
2023/01/28 05:41:36;;;;;;;9.13;7.93;;;;;;;0.73;100.00;98769.03;5073141;28;20227;-72
2023/01/28 05:44:02;;;;;;;8.87;7.63;;;;;;;0.72;100.00;98767.38;5072873;28;20205;-72
2023/01/28 05:46:29;;;;;;;8.57;7.30;;;;;;;0.78;100.00;98777.28;5076832;28;20204;-71
2023/01/28 05:48:55;;;;;;;9.40;8.13;;;;;;;0.75;100.00;98780.19;5076996;28;20208;-71
2023/01/28 05:51:21;;;;;;;9.13;8.00;;;;;;;0.75;100.00;98776.72;5077211;28;20583;-72
2023/01/28 05:53:48;;;;;;;10.07;7.67;;;;;;;0.74;100.00;98777.69;5077065;28;20228;-71
2023/01/28 05:56:14;;;;;;;8.87;7.50;;;;;;;0.71;100.00;98773.56;5077157;28;20210;-71
2023/01/28 05:58:40;;;;;;;8.80;7.90;;;;;;;0.73;100.00;98773.44;5077186;28;20204;-71
2023/01/28 06:01:07;;;;;;;8.90;7.40;;;;;;;0.77;100.00;98775.63;5076977;28;20216;-72
2023/01/28 06:03:33;;;;;;;8.27;7.10;;;;;;;0.84;100.00;98783.72;5076511;28;20286;-72
2023/01/28 06:06:00;;;;;;;7.70;6.90;;;;;;;0.93;100.00;98786.34;5076509;28;20208;-71
2023/01/28 06:08:26;;;;;;;7.93;6.73;;;;;;;0.96;100.00;98785.22;5076800;28;20201;-72
2023/01/28 06:10:52;;;;;;;7.40;6.33;;;;;;;1.01;100.00;98781.22;5076700;28;20200;-71
2023/01/28 06:13:19;;;;;;;7.43;6.67;;;;;;;0.99;100.00;98791.00;5076177;28;20227;-71
2023/01/28 06:15:49;;;;;;;8.17;6.77;;;;;;;1.03;100.00;98794.19;5076193;28;20220;-72
2023/01/28 06:18:16;;;;;;;7.50;6.57;;;;;;;1.07;100.00;98800.81;5076350;28;20636;-72
2023/01/28 06:20:42;;;;;;;7.60;6.80;;;;;;;0.97;100.00;98805.22;5076665;28;20230;-72
2023/01/28 06:23:08;;;;;;;7.63;6.43;;;;;;;0.80;100.00;98817.22;5076543;28;20229;-72
2023/01/28 06:25:35;;;;;;;7.80;7.00;;;;;;;0.86;100.00;98816.66;5076336;28;20204;-72
2023/01/28 06:28:01;;;;;;;7.47;6.70;;;;;;;0.76;100.00;98821.06;5076328;28;20705;-72
2023/01/28 06:30:27;;;;;;;8.93;7.03;;;;;;;0.76;100.00;98823.69;5076585;28;20204;-71
2023/01/28 06:32:57;;;;;;;8.33;7.27;;;;;;;0.85;100.00;98825.47;5076264;28;20247;-72
2023/01/28 06:35:23;;;;;;;8.20;7.40;;;;;;;0.77;100.00;98832.38;5076266;28;20208;-72
2023/01/28 06:37:51;;;;;;;7.87;6.63;;;;;;;0.76;100.00;98828.94;5076230;28;20208;-72
2023/01/28 06:40:18;;;;;;;7.80;6.93;;;;;;;0.87;100.00;98838.44;5075992;28;20236;-71
2023/01/28 06:42:44;;;;;;;9.67;7.10;;;;;;;0.80;100.00;98838.16;5076167;28;20229;-72
2023/01/28 06:45:11;;;;;;;8.23;6.77;;;;;;;0.77;100.00;98838.44;5076038;28;20211;-72
2023/01/28 06:47:40;;;;;;;7.40;6.70;;;;;;;0.76;100.00;98842.00;5076010;28;20207;-72
2023/01/28 06:50:07;;;;;;;7.90;6.80;;;;;;;1.00;100.00;98839.81;5076049;28;20210;-72
2023/01/28 06:52:33;;;;;;;8.70;7.80;;;;;;;0.91;100.00;98835.41;5075729;28;20232;-71
2023/01/28 06:55:00;;;;;;;7.93;6.57;;;;;;;1.12;100.00;98843.09;5075997;28;20315;-71
2023/01/28 06:57:26;;;;;;;7.37;6.63;;;;;;;0.96;100.00;98853.28;5074842;28;20295;-72
2023/01/28 06:59:53;;;;;;;8.43;7.53;;;;;;;0.86;100.00;98848.06;5076073;28;20291;-72
2023/01/28 07:02:19;;;;;;;8.80;7.70;;;;;;;1.09;100.00;98854.69;5075821;28;20227;-72
2023/01/28 07:04:46;;;;;;;8.87;7.40;;;;;;;1.03;100.00;98851.78;5076258;28;20201;-72
2023/01/28 07:07:12;;;;;;;8.50;7.43;;;;;;;0.99;100.00;98847.78;5075686;28;20581;-72
2023/01/28 07:09:38;;;;;;;8.63;7.73;;;;;;;0.99;100.00;98853.03;5075673;28;20209;-72
2023/01/28 07:12:05;;;;;;;7.73;6.73;;;;;;;1.05;100.00;98848.06;5075436;28;20232;-72
2023/01/28 07:14:32;;;;;;;8.80;7.57;;;;;;;1.03;100.00;98849.16;5075362;28;20667;-71
2023/01/28 07:16:58;;;;;;;9.43;6.87;;;;;;;1.02;100.00;98850.13;5075752;28;20216;-71
2023/01/28 07:19:25;;;;;;;8.70;7.83;;;;;;;0.98;100.00;98857.44;5075456;28;20215;-72
2023/01/28 07:21:51;;;;;;;9.03;8.13;;;;;;;0.95;100.00;98865.56;5075288;28;20224;-72
2023/01/28 07:24:18;;;;;;;8.00;7.20;;;;;;;0.95;100.00;98867.34;5075423;28;20197;-71
2023/01/28 07:26:44;;;;;;;8.73;7.17;;;;;;;0.88;100.00;98864.47;5075009;28;20659;-71
2023/01/28 07:29:11;;;;;;;9.47;8.30;;;;;;;0.95;100.00;98864.75;5075426;28;20291;-72
2023/01/28 07:31:37;;;;;;;11.00;8.03;;;;;;;0.92;100.00;98862.38;5075395;28;20231;-72
2023/01/28 07:34:03;;;;;;;8.33;7.43;;;;;;;1.03;100.00;98875.34;5074895;28;20220;-72
2023/01/28 07:36:30;;;;;;;10.63;8.00;;;;;;;1.11;100.00;98875.44;5075172;28;20208;-71
2023/01/28 07:38:56;;;;;;;10.33;8.17;;;;;;;1.04;100.00;98866.53;5075111;28;20204;-71
2023/01/28 07:41:23;;;;;;;9.90;7.80;;;;;;;1.10;100.00;98876.44;5075004;28;20307;-71
2023/01/28 07:43:49;;;;;;;9.40;8.17;;;;;;;1.18;100.00;98873.94;5074884;28;20208;-72
2023/01/28 07:46:15;;;;;;;8.90;8.00;;;;;;;1.15;100.00;98882.06;5074671;28;20569;-72
2023/01/28 07:48:42;;;;;;;8.83;7.43;;;;;;;1.25;100.00;98881.09;5074727;28;20686;-72
2023/01/28 07:51:08;;;;;;;9.63;7.97;;;;;;;1.20;100.00;98883.31;5074663;28;20572;-72
2023/01/28 07:53:34;;;;;;;10.03;8.13;;;;;;;1.10;100.00;98881.66;5074986;28;20242;-72
2023/01/28 07:56:01;;;;;;;8.97;7.73;;;;;;;1.13;100.00;98886.63;5074938;28;20200;-72
2023/01/28 07:58:28;;;;;;;8.40;7.57;;;;;;;1.10;100.00;98882.50;5074742;28;20299;-72
2023/01/28 08:00:58;;;;;;;8.83;7.60;;;;;;;1.18;100.00;98887.88;5074298;28;20660;-72
2023/01/28 08:03:24;;;;;;;9.30;8.17;;;;;;;1.07;100.00;98889.81;5074668;28;20205;-72
2023/01/28 08:05:53;;;;;;;8.57;7.60;;;;;;;1.25;100.00;98888.94;5074341;28;20208;-72
2023/01/28 08:08:20;;;;;;;10.03;7.33;;;;;;;1.25;100.00;98894.19;5074073;28;20295;-72
2023/01/28 08:10:48;;;;;;;8.80;7.87;;;;;;;1.36;100.00;98893.22;5074391;28;20605;-72
2023/01/28 08:13:15;;;;;;;9.17;8.07;;;;;;;1.32;100.00;98892.69;5073791;28;20232;-71
2023/01/28 08:15:42;;;;;;;8.73;7.83;;;;;;;1.29;100.00;98895.56;5074304;28;20212;-71
2023/01/28 08:18:12;;;;;;;9.43;8.37;;;;;;;1.48;100.00;98899.94;5073925;28;20204;-71
2023/01/28 08:20:39;;;;;;;11.03;8.30;;;;;;;1.30;100.00;98904.25;5074209;28;20208;-71
2023/01/28 08:23:12;;;;;;;8.83;7.93;;;;;;;1.26;100.00;98906.31;5073773;28;20233;-72
2023/01/28 08:25:39;;;;;;;10.23;8.93;;;;;;;1.35;100.00;98907.28;5073667;28;20749;-71
2023/01/28 08:28:06;;;;;;;10.10;8.73;;;;;;;1.38;100.00;98901.75;5073510;28;20295;-72
2023/01/28 08:30:36;;;;;;;10.23;8.63;;;;;;;1.25;100.00;98907.28;5074076;28;20204;-71
2023/01/28 08:33:03;;;;;;;9.30;8.13;;;;;;;1.31;100.00;98906.72;5073800;28;20225;-71
2023/01/28 08:35:29;;;;;;;9.90;8.87;;;;;;;1.34;100.00;98910.84;5073937;28;20228;-71
2023/01/28 08:37:58;;;;;;;10.23;8.40;;;;;;;1.54;100.00;98904.63;5073949;28;20214;-72
2023/01/28 08:40:24;;;;;;;10.07;8.43;;;;;;;1.55;100.00;98906.25;5073557;28;20212;-71
2023/01/28 08:42:52;;;;;;;11.30;8.93;;;;;;;1.78;100.00;98904.94;5073589;28;20229;-72
2023/01/28 08:45:21;;;;;;;9.97;8.97;;;;;;;1.63;100.00;98906.38;5073515;28;20204;-72
2023/01/28 08:47:52;;;;;;;9.33;8.33;;;;;;;1.85;100.00;98903.41;5073466;28;20201;-71
2023/01/28 08:50:20;;;;;;;9.53;8.53;;;;;;;1.71;100.00;98904.69;5073741;28;20189;-71
2023/01/28 08:52:48;;;;;;;9.60;8.20;;;;;;;1.84;100.00;98901.75;5073585;28;20243;-72
2023/01/28 08:55:17;;;;;;;11.37;8.47;;;;;;;1.70;100.00;98908.28;5073630;28;20228;-71
2023/01/28 08:57:44;;;;;;;10.17;8.50;;;;;;;2.06;100.00;98907.47;5073270;28;20231;-72
2023/01/28 09:00:11;;;;;;;11.63;9.03;;;;;;;1.87;100.00;98902.31;5073495;28;20200;-72
2023/01/28 09:02:38;;;;;;;12.80;9.27;;;;;;;1.77;100.00;98917.25;5073218;28;20225;-71
2023/01/28 09:05:05;;;;;;;10.30;9.10;;;;;;;1.90;100.00;98914.28;5073082;28;20201;-71
2023/01/28 09:07:34;;;;;;;10.93;8.60;;;;;;;2.07;100.00;98916.97;5073533;28;20240;-71
2023/01/28 09:10:00;;;;;;;12.63;9.33;;;;;;;2.25;100.00;98911.78;5073443;28;20211;-72
2023/01/28 09:12:27;;;;;;;10.37;8.87;;;;;;;2.29;100.00;98911.34;5073340;28;20239;-71
2023/01/28 09:14:54;;;;;;;11.93;9.33;;;;;;;2.46;100.00;98914.97;5073457;28;20319;-71
2023/01/28 09:17:21;;;;;;;10.53;8.70;;;;;;;2.46;100.00;98917.59;5073439;28;20208;-71
2023/01/28 09:19:48;;;;;;;12.03;9.77;;;;;;;2.27;100.00;98917.72;5072545;28;20201;-71
2023/01/28 09:22:15;;;;;;;10.77;9.43;;;;;;;2.51;100.00;98920.59;5073163;28;20220;-71
2023/01/28 09:24:41;;;;;;;10.87;9.73;;;;;;;2.43;100.00;98928.41;5073352;28;20196;-71
2023/01/28 09:27:07;;;;;;;12.37;9.80;;;;;;;2.43;100.00;98934.47;5073360;28;20200;-71
2023/01/28 09:29:34;;;;;;;10.40;8.93;;;;;;;2.47;100.00;98935.81;5072928;28;20213;-71
2023/01/28 09:32:01;;;;;;;11.03;9.60;;;;;;;2.52;100.00;98944.09;5073108;28;20247;-71
2023/01/28 09:34:27;;;;;;;11.73;9.23;;;;;;;2.36;100.00;98941.28;5073122;28;20220;-71
2023/01/28 09:36:53;;;;;;;12.37;9.70;;;;;;;2.42;100.00;98943.31;5072788;28;20208;-71
2023/01/28 09:39:20;;;;;;;11.93;10.17;;;;;;;2.26;100.00;98937.88;5072732;28;20648;-71
2023/01/28 09:42:17;;;;;;;13.00;9.83;;;;;;;2.44;100.00;98946.59;5072782;28;20232;-71
2023/01/28 09:44:53;;;;;;;11.63;9.70;;;;;;;2.41;100.00;98946.91;5072960;28;20204;-71
2023/01/28 09:47:25;;;;;;;11.60;9.80;;;;;;;2.51;100.00;98952.09;5073107;28;20208;-71
2023/01/28 09:49:55;;;;;;;11.03;9.30;;;;;;;2.57;100.00;98957.59;5071590;28;20193;-71
2023/01/28 09:52:24;;;;;;;12.47;9.97;;;;;;;2.65;100.00;98959.47;5072987;28;20274;-71
2023/01/28 09:55:07;;;;;;;12.37;9.60;;;;;;;2.81;100.00;98957.88;5073063;28;20228;-71
2023/01/28 09:57:51;;;;;;;12.27;9.23;;;;;;;2.65;100.00;98948.97;5072924;28;20557;-71
2023/01/28 10:00:36;;;;;;;11.03;9.83;;;;;;;2.76;100.00;98957.47;5072815;28;20224;-71
2023/01/28 10:03:27;;;;;;;11.13;9.77;;;;;;;2.63;100.00;98964.06;5071459;28;20236;-71
2023/01/28 10:06:18;;;;;;;10.97;9.80;;;;;;;2.94;99.22;98965.38;5072938;28;20231;-71
2023/01/28 10:09:00;;;;;;;10.60;9.40;;;;;;;2.82;100.00;98963.94;5072864;28;20193;-71
2023/01/28 10:12:03;;;;;;;12.00;10.30;;;;;;;2.54;100.00;98963.16;5072543;28;20587;-71
2023/01/28 10:14:47;;;;;;;11.20;10.00;;;;;;;2.32;100.00;98958.28;5037923;28;20228;-71
2023/01/28 10:17:20;;;;;;;11.73;10.07;;;;;;;2.44;100.00;98953.66;5072847;28;20196;-71
2023/01/28 10:19:53;;;;;;;12.20;9.67;;;;;;;2.71;100.00;98943.16;5072835;28;20189;-71
2023/01/28 10:22:25;;;;;;;11.47;9.77;;;;;;;2.74;100.00;98950.72;5072197;28;20220;-71
2023/01/28 10:25:00;;;;;;;14.13;10.90;;;;;;;2.56;100.00;98941.97;5072510;28;20666;-71
2023/01/28 10:27:30;;;;;;;13.03;10.70;;;;;;;2.57;100.00;98948.91;5072376;28;20185;-71
2023/01/28 10:30:00;;;;;;;12.97;10.23;;;;;;;2.40;100.00;98939.19;5073184;28;20204;-71
2023/01/28 10:32:33;;;;;;;12.73;10.80;;;;;;;2.44;100.00;98949.22;5075758;28;20592;-71
2023/01/28 10:35:00;;;;;;;14.73;10.90;;;;;;;2.35;100.00;98946.69;5076172;28;20220;-71
2023/01/28 10:37:28;;;;;;;13.37;10.87;;;;;;;2.07;100.00;98947.63;5076286;28;20254;-71
2023/01/28 10:39:59;;;;;;;13.70;11.47;;;;;;;2.10;100.00;98934.22;5075934;28;20211;-71
2023/01/28 10:42:37;;;;;;;13.93;11.43;;;;;;;2.22;100.00;98938.31;5076142;28;20233;-71
2023/01/28 10:45:21;;;;;;;13.03;10.97;;;;;;;2.44;100.00;98935.31;5075863;28;20200;-71
2023/01/28 10:47:54;;;;;;;12.90;11.00;;;;;;;2.59;100.00;98932.03;5076125;28;20204;-71
2023/01/28 10:50:24;;;;;;;12.50;10.83;;;;;;;2.38;100.00;98936.69;5076188;28;20193;-71
2023/01/28 10:53:01;;;;;;;13.40;10.87;;;;;;;2.34;100.00;98939.78;5075868;28;20256;-71
2023/01/28 10:55:36;;;;;;;12.50;10.47;;;;;;;2.64;100.00;98934.19;5076375;28;20737;-71
2023/01/28 10:58:04;;;;;;;13.90;11.43;;;;;;;2.49;100.00;98940.94;5074206;28;20188;-71
2023/01/28 11:00:37;;;;;;;13.07;10.67;;;;;;;2.37;100.00;98940.31;5076249;28;20216;-71
2023/01/28 11:03:04;;;;;;;13.00;11.27;;;;;;;2.40;100.00;98934.75;5075803;28;20220;-71
2023/01/28 11:05:31;;;;;;;13.23;10.40;;;;;;;2.41;100.00;98941.66;5076530;28;20212;-71
2023/01/28 11:08:28;;;;;;;13.47;11.30;;;;;;;2.65;100.00;98936.69;5075650;28;20295;-71
2023/01/28 11:10:56;;;;;;;14.23;11.03;;;;;;;3.00;100.00;98944.59;5067105;28;20521;-71
2023/01/28 11:13:30;;;;;;;11.93;10.23;;;;;;;2.68;100.00;98935.56;5075158;28;20675;-71
2023/01/28 11:16:06;;;;;;;14.53;11.43;;;;;;;2.96;100.00;98940.63;5075254;28;20209;-71
2023/01/28 11:18:40;;;;;;;12.07;10.43;;;;;;;3.09;100.00;98940.25;5075408;28;20200;-71
2023/01/28 11:21:22;;;;;;;12.97;10.53;;;;;;;2.99;99.96;98942.13;5075498;28;20554;-71
2023/01/28 11:23:52;;;;;;;12.73;9.80;;;;;;;2.70;100.00;98942.31;5075627;28;20189;-71
2023/01/28 11:26:22;;;;;;;12.60;10.97;;;;;;;2.93;100.00;98942.72;5075292;28;20196;-71
2023/01/28 11:28:51;;;;;;;11.87;10.13;;;;;;;2.71;97.55;98949.22;5075357;28;20193;-71
2023/01/28 11:31:19;;;;;;;13.13;10.43;;;;;;;2.57;98.80;98948.91;5073666;28;20239;-71
2023/01/28 11:34:04;;;;;;;11.47;10.00;;;;;;;2.39;100.00;98951.47;5074770;28;20299;-71
2023/01/28 11:36:33;;;;;;;12.80;10.30;;;;;;;2.52;100.00;98951.97;5074474;28;20185;-71
2023/01/28 11:39:04;;;;;;;14.90;11.37;;;;;;;2.63;100.00;98945.69;5074456;28;20205;-71
2023/01/28 11:41:36;;;;;;;13.27;11.03;;;;;;;2.60;100.00;98945.97;5074868;28;20848;-71
2023/01/28 11:44:20;;;;;;;17.67;11.73;;;;;;;2.41;100.00;98946.09;5074762;28;20210;-71
2023/01/28 11:47:12;;;;;;;14.33;10.90;;;;;;;2.49;100.00;98946.19;5068732;28;20189;-71
2023/01/28 11:49:44;;;;;;;13.20;11.13;;;;;;;2.32;100.00;98945.16;5064523;28;20276;-71
2023/01/28 11:52:29;;;;;;;15.13;10.53;;;;;;;2.49;100.00;98947.00;5063225;28;20217;-71
2023/01/28 11:55:22;;;;;;;14.73;11.97;;;;;;;2.37;100.00;98948.19;5063885;28;20233;-71
2023/01/28 11:58:11;;;;;;;14.27;9.90;;;;;;;2.39;100.00;98948.03;5064823;28;20188;-71
2023/01/28 12:00:53;;;;;;;13.10;10.80;;;;;;;2.22;100.00;98947.00;5062663;28;20196;-71
2023/01/28 12:03:39;;;;;;;15.83;11.63;;;;;;;2.21;100.00;98945.34;5063402;28;20316;-71
2023/01/28 12:06:31;;;;;;;15.87;10.93;;;;;;;2.37;100.00;98945.56;5065271;28;20334;-71
2023/01/28 12:09:29;;;;;;;15.80;11.70;;;;;;;2.27;100.00;98943.94;5063941;28;20193;-71
2023/01/28 12:12:38;;;;;;;15.30;10.97;;;;;;;2.20;100.00;98943.69;5063829;28;20615;-71
2023/01/28 12:15:37;;;;;;;13.63;11.33;;;;;;;2.21;100.00;98942.72;5064359;28;20229;-71